Time;durP1;ratioP1;P1;durP2;ratioP2;P2;SDS_P1;SDS_P2;PMS_P1;PMS_P2;Temp;Humidity;BMP_temperature;BMP_pressure;BME280_temperature;BME280_humidity;BME280_pressure;Samples;Min_cycle;Max_cycle;Signal;HPM_P1;HPM_P2
2022/09/01 00:01:27;;;;;;;20.50;2.63;;;43.80;31.70;;;;;;4991465;28;20139;-64
2022/09/01 00:04:02;;;;;;;14.65;2.65;;;43.80;31.50;;;;;;4992997;28;20029;-64
2022/09/01 00:06:30;;;;;;;14.85;2.20;;;43.80;31.40;;;;;;4991631;28;20041;-63
2022/09/01 00:09:01;;;;;;;16.65;2.00;;;43.70;31.50;;;;;;4992419;28;20061;-69
2022/09/01 00:11:30;;;;;;;19.08;2.38;;;43.60;31.30;;;;;;4975689;28;20460;-64
2022/09/01 00:13:57;;;;;;;19.63;2.20;;;43.60;31.60;;;;;;5009432;28;20447;-63
2022/09/01 00:16:24;;;;;;;10.70;1.70;;;43.60;31.70;;;;;;4991602;28;20038;-64
2022/09/01 00:18:52;;;;;;;13.65;2.03;;;43.50;31.50;;;;;;4993633;28;20037;-64
2022/09/01 00:21:23;;;;;;;18.05;2.20;;;43.40;31.70;;;;;;4975031;28;20484;-64
2022/09/01 00:23:50;;;;;;;17.35;2.20;;;43.40;31.30;;;;;;4989083;28;20396;-64
2022/09/01 00:26:17;;;;;;;27.92;2.75;;;43.30;31.50;;;;;;4989374;28;20030;-64
2022/09/01 00:28:44;;;;;;;20.48;3.10;;;43.30;31.40;;;;;;4989630;28;20483;-63
2022/09/01 00:31:10;;;;;;;13.50;2.08;;;43.30;31.90;;;;;;4973309;28;20037;-65
2022/09/01 00:33:37;;;;;;;15.93;2.60;;;43.10;31.70;;;;;;4989781;28;20033;-64
2022/09/01 00:36:05;;;;;;;17.95;2.13;;;43.10;31.30;;;;;;4995253;28;20445;-64
2022/09/01 00:38:33;;;;;;;18.55;2.50;;;43.10;31.20;;;;;;4989888;28;20029;-64
2022/09/01 00:41:00;;;;;;;27.70;2.45;;;43.00;31.20;;;;;;4989309;28;20033;-64
2022/09/01 00:43:38;;;;;;;18.25;2.60;;;42.90;31.40;;;;;;4989645;28;20388;-65
2022/09/01 00:46:07;;;;;;;60.53;35.20;;;42.90;31.50;;;;;;5005166;28;20037;-64
2022/09/01 00:48:35;;;;;;;36.08;17.23;;;42.80;31.20;;;;;;4989313;28;20034;-64
2022/09/01 00:51:03;;;;;;;23.58;6.47;;;42.70;31.00;;;;;;4990606;28;20050;-64
2022/09/01 00:53:30;;;;;;;27.75;3.20;;;42.60;31.20;;;;;;4987314;28;20495;-65
2022/09/01 00:55:57;;;;;;;20.90;2.60;;;42.60;31.30;;;;;;4989467;28;20400;-64
2022/09/01 00:58:23;;;;;;;19.73;2.85;;;42.50;31.30;;;;;;4972562;28;20025;-65
2022/09/01 01:00:51;;;;;;;15.10;2.22;;;42.50;32.00;;;;;;4989451;28;20117;-64
2022/09/01 01:03:18;;;;;;;16.88;1.98;;;42.40;31.40;;;;;;4989419;28;20141;-65
2022/09/01 01:05:53;;;;;;;24.23;2.38;;;42.40;31.30;;;;;;4988387;28;20388;-64
2022/09/01 01:08:32;;;;;;;18.15;1.80;;;42.30;31.50;;;;;;5004074;28;20385;-65
2022/09/01 01:11:08;;;;;;;18.08;1.92;;;42.30;31.30;;;;;;4988583;28;20058;-64
2022/09/01 01:13:53;;;;;;;;;;;42.20;31.40;;;;;;4989941;28;20523;-65
2022/09/01 01:16:21;;;;;;;12.18;1.77;;;42.10;31.40;;;;;;5004841;28;20336;-65
2022/09/01 01:18:48;;;;;;;10.95;1.48;;;42.00;31.40;;;;;;4990339;28;20142;-65
2022/09/01 01:24:31;;;;;;;12.27;2.00;;;41.90;31.70;;;;;;4990221;28;20084;-65
2022/09/01 01:27:02;;;;;;;25.95;2.13;;;41.80;31.80;;;;;;4988890;28;20037;-65
2022/09/01 01:29:36;;;;;;;17.05;2.10;;;41.70;31.60;;;;;;4993817;28;20061;-65
2022/09/01 01:32:11;;;;;;;11.05;2.00;;;41.60;31.70;;;;;;4987972;28;20037;-64
2022/09/01 01:34:44;;;;;;;12.38;1.95;;;41.60;31.80;;;;;;4973189;28;20034;-63
2022/09/01 01:37:13;;;;;;;15.60;2.08;;;41.50;31.70;;;;;;4990877;28;20033;-63
2022/09/01 01:39:41;;;;;;;19.55;2.13;;;41.40;31.40;;;;;;4987672;28;20523;-63
2022/09/01 01:42:08;;;;;;;15.88;1.92;;;41.40;31.50;;;;;;4988476;28;20026;-63
2022/09/01 01:44:37;;;;;;;14.10;2.40;;;41.30;31.40;;;;;;5001255;28;20054;-64
2022/09/01 01:47:11;;;;;;;23.80;2.10;;;41.20;31.40;;;;;;4989696;28;20023;-64
2022/09/01 01:49:42;;;;;;;12.48;1.60;;;41.10;31.30;;;;;;4988380;28;20453;-65
2022/09/01 01:52:13;;;;;;;18.48;2.17;;;41.10;31.20;;;;;;4987650;28;20620;-63
2022/09/01 01:54:40;;;;;;;20.02;2.47;;;41.00;31.20;;;;;;4988520;28;20670;-63
2022/09/01 01:57:07;;;;;;;16.35;2.88;;;40.90;31.50;;;;;;4988196;28;20030;-64
2022/09/01 01:59:33;;;;;;;19.98;2.47;;;40.90;31.80;;;;;;4988603;28;20038;-66
2022/09/01 02:02:02;;;;;;;20.70;1.83;;;40.80;31.80;;;;;;4988362;28;20022;-66
2022/09/01 02:04:32;;;;;;;17.50;2.40;;;40.70;31.90;;;;;;4988534;28;20026;-67
2022/09/01 02:06:59;;;;;;;12.77;2.13;;;40.70;32.10;;;;;;4988053;28;20506;-66
2022/09/01 02:09:25;;;;;;;36.60;3.67;;;40.70;32.10;;;;;;4987055;28;20180;-63
2022/09/01 02:11:56;;;;;;;26.65;2.60;;;40.60;32.50;;;;;;4986152;28;20041;-65
2022/09/01 02:14:22;;;;;;;23.02;2.97;;;40.60;32.50;;;;;;4986044;28;20447;-62
2022/09/01 02:16:49;;;;;;;22.40;2.70;;;40.50;32.70;;;;;;5004332;28;20045;-63
2022/09/01 02:19:19;;;;;;;39.33;3.65;;;40.50;32.70;;;;;;4988755;28;20018;-65
2022/09/01 02:21:54;;;;;;;31.35;3.40;;;40.40;33.30;;;;;;4988451;28;20022;-62
2022/09/01 02:24:22;;;;;;;41.50;3.60;;;40.40;33.10;;;;;;4985738;28;20029;-64
2022/09/01 02:26:49;;;;;;;38.30;3.88;;;40.30;33.00;;;;;;4988177;28;20424;-62
2022/09/01 02:29:21;;;;;;;33.95;5.00;;;40.20;33.50;;;;;;4987498;28;20046;-64
2022/09/01 02:31:50;;;;;;;38.30;4.00;;;40.20;33.30;;;;;;4989385;28;20030;-63
2022/09/01 02:34:18;;;;;;;37.05;4.38;;;40.10;33.40;;;;;;4986914;28;20038;-63
2022/09/01 02:36:48;;;;;;;34.80;4.35;;;40.10;33.60;;;;;;4987700;28;20037;-64
2022/09/01 02:39:22;;;;;;;49.40;4.63;;;40.10;33.80;;;;;;4986847;28;20026;-63
2022/09/01 02:41:49;;;;;;;39.20;4.55;;;40.00;34.10;;;;;;4989449;28;20046;-62
2022/09/01 02:44:17;;;;;;;42.70;4.72;;;40.00;34.40;;;;;;4987133;28;20033;-63
2022/09/01 02:46:46;;;;;;;40.60;5.10;;;39.90;34.20;;;;;;4991517;28;20056;-63
2022/09/01 02:49:18;;;;;;;37.42;4.20;;;39.90;34.30;;;;;;4972094;28;20026;-62
2022/09/01 02:51:59;;;;;;;29.60;3.70;;;39.80;34.50;;;;;;4987762;28;20117;-63
2022/09/01 02:54:26;;;;;;;39.58;4.03;;;39.80;34.60;;;;;;5001442;28;20109;-63
2022/09/01 02:56:53;;;;;;;31.80;3.60;;;39.80;34.40;;;;;;4987706;28;20036;-62
2022/09/01 02:59:22;;;;;;;27.38;2.90;;;39.70;34.10;;;;;;4987793;28;20049;-62
2022/09/01 03:01:52;;;;;;;23.90;3.03;;;39.70;34.10;;;;;;4987238;28;20018;-62
2022/09/01 03:04:21;;;;;;;40.00;4.18;;;39.60;34.00;;;;;;4971925;28;20405;-64
2022/09/01 03:06:48;;;;;;;24.08;3.30;;;39.60;34.00;;;;;;4986804;28;20042;-65
2022/09/01 03:09:17;;;;;;;25.88;3.40;;;39.60;34.10;;;;;;4985957;28;20113;-63
2022/09/01 03:11:47;;;;;;;37.65;3.72;;;39.60;34.20;;;;;;4987477;28;20026;-63
2022/09/01 03:14:13;;;;;;;35.67;4.00;;;39.50;34.30;;;;;;4986560;28;20022;-61
2022/09/01 03:16:40;;;;;;;32.58;4.05;;;39.40;34.10;;;;;;4986222;28;20026;-63
2022/09/01 03:19:08;;;;;;;33.95;4.35;;;39.40;34.10;;;;;;4987884;28;20023;-62
2022/09/01 03:21:39;;;;;;;31.80;4.50;;;39.30;34.20;;;;;;4988231;28;20037;-63
2022/09/01 03:24:07;;;;;;;30.40;4.20;;;39.30;34.30;;;;;;4989319;28;20034;-62
2022/09/01 03:26:35;;;;;;;34.70;4.90;;;39.20;34.10;;;;;;4992333;28;20205;-64
2022/09/01 03:29:02;;;;;;;27.17;4.03;;;39.20;34.30;;;;;;4990394;28;20405;-62
2022/09/01 03:31:30;;;;;;;27.55;4.50;;;39.20;34.30;;;;;;4989876;28;20034;-64
2022/09/01 03:33:57;;;;;;;32.20;4.90;;;39.10;34.00;;;;;;5005939;28;20033;-63
2022/09/01 03:36:24;;;;;;;27.92;4.43;;;39.10;34.40;;;;;;4991489;28;20101;-63
2022/09/01 03:38:52;;;;;;;30.08;4.43;;;39.00;34.20;;;;;;5006598;28;20018;-62
2022/09/01 03:41:23;;;;;;;25.80;4.57;;;39.00;34.50;;;;;;4993839;28;20023;-66
2022/09/01 03:43:53;;;;;;;26.67;4.60;;;39.00;34.20;;;;;;4990153;28;20027;-63
2022/09/01 03:46:21;;;;;;;27.17;4.43;;;38.90;34.10;;;;;;5006651;28;20045;-65
2022/09/01 03:48:49;;;;;;;30.00;4.78;;;38.90;34.30;;;;;;4990703;28;20030;-63
2022/09/01 03:51:17;;;;;;;24.45;4.88;;;38.80;34.40;;;;;;4991367;28;20026;-62
2022/09/01 03:53:44;;;;;;;26.67;4.95;;;38.70;34.40;;;;;;5006457;28;20058;-63
2022/09/01 03:56:10;;;;;;;26.30;4.88;;;38.70;34.60;;;;;;4991819;28;20036;-64
2022/09/01 03:58:37;;;;;;;26.63;4.95;;;38.70;34.60;;;;;;4989484;28;20029;-63
2022/09/01 04:01:04;;;;;;;26.30;5.38;;;38.60;34.40;;;;;;5006890;28;20565;-65
2022/09/01 04:03:33;;;;;;;26.70;5.43;;;38.60;34.50;;;;;;5006561;28;20023;-63
2022/09/01 04:06:01;;;;;;;47.85;6.55;;;38.60;34.70;;;;;;4990308;28;20085;-62
2022/09/01 04:08:30;;;;;;;45.63;5.82;;;38.50;34.50;;;;;;4990409;28;20026;-63
2022/09/01 04:10:58;;;;;;;41.70;6.10;;;38.50;34.40;;;;;;4991665;28;20268;-63
2022/09/01 04:13:38;;;;;;;31.80;5.90;;;38.50;34.20;;;;;;4989962;28;20034;-64
2022/09/01 04:18:03;;;;;;;44.92;6.00;;;38.40;34.30;;;;;;4990171;28;20089;-64
2022/09/01 04:18:51;;;;;;;44.53;5.78;;;38.40;34.30;;;;;;4991476;28;20469;-66
2022/09/01 04:21:18;;;;;;;31.33;5.05;;;38.30;34.30;;;;;;4989758;28;20034;-63
2022/09/01 04:23:45;;;;;;;37.53;5.38;;;38.20;35.10;;;;;;4990498;28;20699;-64
2022/09/01 04:26:14;;;;;;;43.17;6.10;;;38.10;36.30;;;;;;5000200;28;20018;-66
2022/09/01 04:28:47;;;;;;;31.02;4.72;;;38.00;36.60;;;;;;4988588;28;20173;-64
2022/09/01 04:31:18;;;;;;;23.23;5.50;;;38.00;36.70;;;;;;4989526;28;20029;-64
2022/09/01 04:33:47;;;;;;;30.45;5.00;;;37.80;36.60;;;;;;4989788;28;20026;-65
2022/09/01 04:36:24;;;;;;;41.10;5.82;;;37.80;36.90;;;;;;4988866;28;20019;-65
2022/09/01 04:38:57;;;;;;;43.95;5.70;;;37.80;36.30;;;;;;4991744;28;20045;-65
2022/09/01 04:41:32;;;;;;;46.53;5.20;;;37.70;36.60;;;;;;4988862;28;20026;-66
2022/09/01 04:44:03;;;;;;;35.37;5.17;;;37.80;37.00;;;;;;4992626;28;21217;-64
2022/09/01 04:46:34;;;;;;;34.47;5.28;;;37.70;36.70;;;;;;4988934;28;20416;-66
2022/09/01 04:49:08;;;;;;;33.53;5.05;;;37.70;36.70;;;;;;4991166;28;20038;-64
2022/09/01 04:51:38;;;;;;;35.63;5.45;;;37.60;36.70;;;;;;4989530;28;20116;-65
2022/09/01 04:54:11;;;;;;;29.98;4.75;;;37.60;37.20;;;;;;4991160;28;20034;-65
2022/09/01 04:56:38;;;;;;;37.38;5.35;;;37.50;37.00;;;;;;4988466;28;20031;-65
2022/09/01 04:59:06;;;;;;;29.45;5.07;;;37.50;36.70;;;;;;4988964;28;20037;-64
2022/09/01 05:01:44;;;;;;;36.67;5.43;;;37.40;36.60;;;;;;4990017;28;20029;-66
2022/09/01 05:04:13;;;;;;;35.95;5.47;;;37.50;36.80;;;;;;4974591;28;20037;-67
2022/09/01 05:06:45;;;;;;;25.13;4.80;;;37.40;37.60;;;;;;5004158;28;20845;-64
2022/09/01 05:09:12;;;;;;;37.97;5.82;;;37.40;37.80;;;;;;4989347;28;20109;-64
2022/09/01 05:11:42;;;;;;;37.70;5.63;;;37.30;38.00;;;;;;4975054;28;20037;-65
2022/09/01 05:14:08;;;;;;;33.28;5.47;;;37.30;37.80;;;;;;5012938;22;20085;-62
2022/09/01 05:16:37;;;;;;;47.70;6.60;;;37.20;38.40;;;;;;5025318;28;20034;-63
2022/09/01 05:19:13;;;;;;;39.33;5.50;;;37.20;38.40;;;;;;5010718;28;20030;-62
2022/09/01 05:21:44;;;;;;;45.97;6.10;;;37.10;38.70;;;;;;5024296;28;20503;-68
2022/09/01 05:24:17;;;;;;;41.45;4.95;;;37.10;39.00;;;;;;4997182;28;20031;-70
2022/09/01 05:26:46;;;;;;;33.97;5.35;;;37.10;39.00;;;;;;4993970;28;20389;-72
2022/09/01 05:29:16;;;;;;;211.70;18.80;;;37.00;39.60;;;;;;4993827;28;20113;-69
2022/09/01 05:31:46;;;;;;;69.28;8.45;;;37.00;39.50;;;;;;4990711;28;20038;-67
2022/09/01 05:34:25;;;;;;;47.75;7.40;;;36.90;39.70;;;;;;4993588;28;20041;-70
2022/09/01 05:36:52;;;;;;;28.05;5.05;;;36.90;39.50;;;;;;4988483;28;20019;-68
2022/09/01 05:39:19;;;;;;;37.65;5.53;;;36.80;39.40;;;;;;4992924;28;20038;-70
2022/09/01 05:41:48;;;;;;;41.58;5.35;;;36.80;39.80;;;;;;4988254;28;20077;-67
2022/09/01 05:44:15;;;;;;;31.02;4.80;;;36.80;40.10;;;;;;4975964;28;20451;-69
2022/09/01 05:46:43;;;;;;;34.20;5.53;;;36.70;40.00;;;;;;4993890;28;20038;-66
2022/09/01 05:49:14;;;;;;;36.20;5.20;;;36.80;40.20;;;;;;4993684;28;20041;-68
2022/09/01 05:51:46;;;;;;;41.25;5.47;;;36.70;40.30;;;;;;4989447;28;20041;-67
2022/09/01 05:54:13;;;;;;;40.03;6.28;;;36.70;40.00;;;;;;4989479;28;20039;-68
2022/09/01 05:56:41;;;;;;;38.88;8.25;;;36.60;40.00;;;;;;4987883;28;20110;-67
2022/09/01 05:59:10;;;;;;;42.03;8.15;;;36.60;40.00;;;;;;4989899;28;20393;-67
2022/09/01 06:01:39;;;;;;;56.75;9.65;;;36.60;40.00;;;;;;4994806;28;20362;-67
2022/09/01 06:04:07;;;;;;;39.92;7.72;;;36.60;40.10;;;;;;4990004;28;20108;-69
2022/09/01 06:06:42;;;;;;;49.25;9.32;;;36.60;40.40;;;;;;4992143;28;20034;-67
2022/09/01 06:09:10;;;;;;;54.38;9.05;;;36.50;40.10;;;;;;5008853;28;20477;-68
2022/09/01 06:11:37;;;;;;;48.20;9.30;;;36.50;40.10;;;;;;4990111;28;20031;-67
2022/09/01 06:14:04;;;;;;;59.38;8.70;;;36.50;40.20;;;;;;4994100;28;20055;-68
2022/09/01 06:16:34;;;;;;;47.35;8.55;;;36.40;40.30;;;;;;4986827;28;20039;-68
2022/09/01 06:19:01;;;;;;;48.97;8.93;;;36.40;40.50;;;;;;4992610;28;20109;-70
2022/09/01 06:21:28;;;;;;;52.45;8.90;;;36.40;40.50;;;;;;4992817;28;20026;-69
2022/09/01 06:23:57;;;;;;;49.28;8.90;;;36.40;40.60;;;;;;4976122;28;20076;-68
2022/09/01 06:26:29;;;;;;;57.38;9.43;;;36.30;40.40;;;;;;4994324;28;20018;-68
2022/09/01 06:28:58;;;;;;;55.78;8.57;;;36.30;40.70;;;;;;4957299;28;20461;-67
2022/09/01 06:31:27;;;;;;;55.70;8.93;;;36.30;40.50;;;;;;4989980;28;20022;-68
2022/09/01 06:33:55;;;;;;;40.35;9.00;;;36.30;40.20;;;;;;4991216;28;20113;-69
2022/09/01 06:36:24;;;;;;;67.43;9.43;;;36.30;40.80;;;;;;4992131;28;20444;-68
2022/09/01 06:38:52;;;;;;;69.68;9.63;;;36.30;40.50;;;;;;4993689;28;20026;-68
2022/09/01 06:41:20;;;;;;;41.85;7.88;;;36.20;40.20;;;;;;4993450;28;20080;-68
2022/09/01 06:43:48;;;;;;;52.90;8.45;;;36.20;40.20;;;;;;4986363;28;20031;-69
2022/09/01 06:46:16;;;;;;;65.50;8.55;;;36.20;40.30;;;;;;4991780;28;20025;-68
2022/09/01 06:48:46;;;;;;;58.90;8.70;;;36.20;40.40;;;;;;4992594;28;20077;-68
2022/09/01 06:51:23;;;;;;;53.72;8.18;;;36.20;40.70;;;;;;4988452;28;20122;-69
2022/09/01 06:53:55;;;;;;;55.42;8.63;;;36.10;40.60;;;;;;4989851;28;20030;-70
2022/09/01 06:56:25;;;;;;;42.38;8.27;;;36.10;40.60;;;;;;4991062;28;20019;-69
2022/09/01 06:58:52;;;;;;;41.97;7.90;;;36.10;40.70;;;;;;4988719;28;20025;-67
2022/09/01 07:01:20;;;;;;;58.17;9.20;;;36.00;39.60;;;;;;4975796;28;20391;-69
2022/09/01 07:03:49;;;;;;;38.70;7.25;;;36.10;38.90;;;;;;4996563;28;20034;-67
2022/09/01 07:06:17;;;;;;;31.23;5.20;;;36.10;38.90;;;;;;4976389;28;20025;-68
2022/09/01 07:08:48;;;;;;;15.30;3.55;;;36.10;37.80;;;;;;4995274;28;20358;-67
2022/09/01 07:11:26;;;;;;;24.88;3.55;;;36.00;37.90;;;;;;4997052;28;20093;-67
2022/09/01 07:13:56;;;;;;;19.30;3.63;;;36.00;38.10;;;;;;4989634;28;20444;-70
2022/09/01 07:16:25;;;;;;;19.13;3.80;;;36.00;38.40;;;;;;4993459;28;20034;-68
2022/09/01 07:18:59;;;;;;;25.20;4.82;;;36.00;38.50;;;;;;4996005;28;20033;-68
2022/09/01 07:21:27;;;;;;;14.13;4.10;;;35.90;39.10;;;;;;4992943;28;20389;-68
2022/09/01 07:23:54;;;;;;;21.33;5.03;;;35.80;40.10;;;;;;4996862;28;20028;-70
2022/09/01 07:26:21;;;;;;;21.67;4.68;;;35.80;40.90;;;;;;4997828;28;20015;-69
2022/09/01 07:28:49;;;;;;;14.73;4.80;;;35.70;41.20;;;;;;4990044;28;20030;-69
2022/09/01 07:31:23;;;;;;;24.63;4.85;;;35.60;41.90;;;;;;4993684;28;20018;-69
2022/09/01 07:33:51;;;;;;;39.70;5.22;;;35.60;43.10;;;;;;4975673;28;20029;-68
2022/09/01 07:36:18;;;;;;;20.58;4.60;;;35.50;44.10;;;;;;4976272;28;20022;-66
2022/09/01 07:38:52;;;;;;;32.97;5.47;;;35.40;44.70;;;;;;4996053;28;20361;-64
2022/09/01 07:41:21;;;;;;;20.10;5.20;;;35.50;45.70;;;;;;4989976;28;20053;-62
2022/09/01 07:43:50;;;;;;;22.15;6.40;;;35.50;46.60;;;;;;5013852;28;20039;-64
2022/09/01 07:46:17;;;;;;;14.10;4.60;;;35.60;47.70;;;;;;4993542;28;20030;-63
2022/09/01 07:48:44;;;;;;;16.40;5.03;;;35.40;49.40;;;;;;4996338;28;20022;-62
2022/09/01 07:51:12;;;;;;;22.80;4.50;;;35.50;50.50;;;;;;4990975;28;20481;-62
2022/09/01 07:53:40;;;;;;;13.77;3.28;;;35.40;51.90;;;;;;4988448;28;20085;-62
2022/09/01 07:56:11;;;;;;;13.88;3.60;;;35.40;54.00;;;;;;4994337;28;20133;-65
2022/09/01 07:58:40;;;;;;;17.70;3.45;;;35.20;55.70;;;;;;4993724;28;20030;-61
2022/09/01 08:01:16;;;;;;;10.63;3.03;;;35.20;56.40;;;;;;4976617;28;20026;-63
2022/09/01 08:03:42;;;;;;;10.52;3.20;;;35.00;57.30;;;;;;4975176;28;20425;-64
2022/09/01 08:06:11;;;;;;;19.17;3.30;;;35.00;58.50;;;;;;4990812;28;20031;-62
2022/09/01 08:08:39;;;;;;;16.85;3.03;;;35.00;58.70;;;;;;4989943;28;20030;-63
2022/09/01 08:11:06;;;;;;;11.30;3.30;;;34.80;59.30;;;;;;4994906;28;20049;-61
2022/09/01 08:13:34;;;;;;;13.18;3.53;;;34.80;60.30;;;;;;4994073;28;20033;-63
2022/09/01 08:16:05;;;;;;;9.93;2.50;;;34.80;61.90;;;;;;4994368;28;20042;-62
2022/09/01 08:18:32;;;;;;;12.93;2.60;;;34.70;62.50;;;;;;4991451;28;20026;-63
2022/09/01 08:23:29;;;;;;;12.20;2.50;;;34.50;65.40;;;;;;5010282;28;20046;-63
2022/09/01 08:25:56;;;;;;;13.20;3.03;;;34.50;65.90;;;;;;5009968;28;20072;-63
2022/09/01 08:28:30;;;;;;;11.50;2.75;;;34.40;66.50;;;;;;5011037;28;20034;-63
2022/09/01 08:30:56;;;;;;;19.65;3.13;;;34.40;67.20;;;;;;4992970;28;20117;-65
2022/09/01 08:33:25;;;;;;;11.80;2.72;;;34.40;67.70;;;;;;4994018;28;20076;-63
2022/09/01 08:35:52;;;;;;;10.13;2.90;;;34.40;68.00;;;;;;4992586;28;20065;-64
2022/09/01 08:38:18;;;;;;;13.68;3.17;;;34.40;68.30;;;;;;4976486;28;20167;-63
2022/09/01 08:40:53;;;;;;;10.25;2.70;;;34.30;69.20;;;;;;5011031;28;20076;-64
2022/09/01 08:43:41;;;;;;;8.93;2.58;;;34.20;69.30;;;;;;4977367;28;20029;-64
2022/09/01 08:46:24;;;;;;;17.27;2.80;;;34.20;69.90;;;;;;5009112;28;20491;-65
2022/09/01 08:48:56;;;;;;;10.15;2.22;;;34.30;69.70;;;;;;5009889;28;20365;-63
2022/09/01 08:51:51;;;;;;;8.63;2.28;;;34.20;69.70;;;;;;4992435;28;20120;-63
2022/09/01 08:54:58;;;;;;;21.20;2.72;;;34.10;69.60;;;;;;5007749;28;20053;-67
2022/09/01 08:57:37;;;;;;;9.57;2.65;;;34.10;69.00;;;;;;4990502;28;20034;-64
2022/09/01 09:00:11;;;;;;;11.35;2.60;;;34.10;69.20;;;;;;4992784;28;20507;-63
2022/09/01 09:02:49;;;;;;;13.10;3.03;;;34.00;69.40;;;;;;4992634;28;20033;-63
2022/09/01 09:05:53;;;;;;;9.65;2.17;;;34.00;69.10;;;;;;4991378;28;20441;-65
2022/09/01 09:08:37;;;;;;;14.90;3.25;;;34.00;68.80;;;;;;4991790;28;20030;-64
2022/09/01 09:11:10;;;;;;;10.15;2.83;;;34.00;69.10;;;;;;5014359;28;20037;-63
2022/09/01 09:13:58;;;;;;;12.90;3.67;;;34.00;69.50;;;;;;5008655;28;20040;-64
2022/09/01 09:16:46;;;;;;;13.10;4.00;;;33.90;69.70;;;;;;4991801;28;20034;-65
2022/09/01 09:19:29;;;;;;;15.60;4.47;;;33.90;70.00;;;;;;4994158;28;20038;-64
2022/09/01 09:22:00;;;;;;;20.05;3.30;;;33.90;70.10;;;;;;4991066;28;20080;-63
2022/09/01 09:24:48;;;;;;;15.68;3.03;;;33.90;70.20;;;;;;5009110;28;20488;-64
2022/09/01 09:27:37;;;;;;;10.10;2.95;;;33.80;70.60;;;;;;5007407;28;20095;-65
2022/09/01 09:30:08;;;;;;;10.57;3.03;;;33.80;70.90;;;;;;4991655;28;20045;-64
2022/09/01 09:32:43;;;;;;;14.52;3.80;;;33.70;71.20;;;;;;5008661;28;20018;-65
2022/09/01 09:35:20;;;;;;;22.90;3.33;;;33.70;71.20;;;;;;5009557;28;20045;-65
2022/09/01 09:37:47;;;;;;;13.40;3.00;;;33.70;72.00;;;;;;4991420;28;20728;-64
2022/09/01 09:40:19;;;;;;;16.52;3.42;;;33.70;72.50;;;;;;5009431;28;20038;-66
2022/09/01 09:42:54;;;;;;;11.43;2.72;;;33.70;73.00;;;;;;4992769;28;20038;-63
2022/09/01 09:45:23;;;;;;;15.18;3.22;;;33.70;73.80;;;;;;4989985;28;20030;-65
2022/09/01 09:47:51;;;;;;;11.30;2.75;;;33.60;74.40;;;;;;4994442;28;20034;-63
2022/09/01 09:50:31;;;;;;;11.25;2.50;;;33.60;75.40;;;;;;4993013;28;20461;-65
2022/09/01 09:53:34;;;;;;;13.45;2.92;;;33.50;76.00;;;;;;4991742;28;20029;-64
2022/09/01 09:56:08;;;;;;;16.00;3.03;;;33.40;76.70;;;;;;4933182;28;20039;-65
2022/09/01 09:58:41;;;;;;;15.65;3.53;;;33.30;77.40;;;;;;4915955;28;20066;-64
2022/09/01 10:01:15;;;;;;;14.13;3.47;;;33.30;78.30;;;;;;4917044;28;20031;-64
2022/09/01 10:03:49;;;;;;;18.08;3.85;;;33.30;79.00;;;;;;4933181;28;20122;-65
2022/09/01 10:06:43;;;;;;;12.48;3.50;;;33.20;79.40;;;;;;4932542;28;20035;-67
2022/09/01 10:09:22;;;;;;;12.00;3.55;;;33.20;80.60;;;;;;4936205;28;20086;-64
2022/09/01 10:11:54;;;;;;;19.55;4.65;;;33.20;81.20;;;;;;4933058;28;20035;-66
2022/09/01 10:14:25;;;;;;;14.05;4.30;;;33.00;82.40;;;;;;4932768;28;20035;-66
2022/09/01 10:17:00;;;;;;;15.30;5.30;;;33.00;83.00;;;;;;4931895;28;20477;-64
2022/09/01 10:19:29;;;;;;;21.23;5.75;;;33.00;83.80;;;;;;4939008;28;20042;-65
2022/09/01 10:21:56;;;;;;;19.20;4.65;;;32.90;84.80;;;;;;4932307;28;20035;-65
2022/09/01 10:24:28;;;;;;;15.82;4.13;;;32.90;85.60;;;;;;4933016;28;20039;-64
2022/09/01 10:26:59;;;;;;;12.55;3.92;;;32.90;86.10;;;;;;4945660;28;20031;-64
2022/09/01 10:29:40;;;;;;;18.17;3.83;;;32.80;87.10;;;;;;4932123;28;20118;-64
2022/09/01 10:32:10;;;;;;;16.35;3.53;;;32.80;88.10;;;;;;4976198;28;20050;-63
2022/09/01 10:34:38;;;;;;;16.40;3.80;;;32.70;88.80;;;;;;4974728;28;20492;-64
2022/09/01 10:37:07;;;;;;;16.98;3.17;;;32.70;89.60;;;;;;4990333;28;20026;-64
2022/09/01 10:39:33;;;;;;;10.38;3.63;;;32.70;90.20;;;;;;5008963;28;20026;-63
2022/09/01 10:42:09;;;;;;;23.30;3.88;;;32.70;90.30;;;;;;4974546;28;20030;-63
2022/09/01 10:44:37;;;;;;;;;;;32.70;90.50;;;;;;4991738;28;20025;-64
2022/09/01 10:47:23;;;;;;;13.88;3.70;;;32.60;90.90;;;;;;5008311;28;20375;-64
2022/09/01 10:49:49;;;;;;;11.55;3.05;;;32.50;91.20;;;;;;5010317;28;20034;-64
2022/09/01 10:52:42;;;;;;;15.38;3.55;;;32.40;91.70;;;;;;5001849;28;20569;-64
2022/09/01 10:55:32;;;;;;;14.75;2.85;;;32.40;92.20;;;;;;4962292;28;20048;-67
2022/09/01 10:58:19;;;;;;;17.77;3.03;;;32.30;92.50;;;;;;4990509;28;20048;-63
2022/09/01 11:00:48;;;;;;;18.25;3.42;;;32.30;92.80;;;;;;4990915;28;20049;-64
2022/09/01 11:03:17;;;;;;;18.85;3.15;;;32.30;93.00;;;;;;4991493;28;20027;-63
2022/09/01 11:05:53;;;;;;;8.95;2.55;;;32.30;92.90;;;;;;4990351;28;20108;-63
2022/09/01 11:08:28;;;;;;;14.70;3.10;;;32.30;92.80;;;;;;4989239;28;20117;-65
2022/09/01 11:11:27;;;;;;;15.93;3.22;;;32.30;92.90;;;;;;5008041;28;20293;-63
2022/09/01 11:13:57;;;;;;;14.02;2.80;;;32.20;92.80;;;;;;5007270;28;20510;-62
2022/09/01 11:16:40;;;;;;;15.45;3.28;;;32.10;92.90;;;;;;4991786;28;20077;-63
2022/09/01 11:19:33;;;;;;;11.07;2.55;;;32.30;92.90;;;;;;4976045;28;20030;-64
2022/09/01 11:22:13;;;;;;;11.55;2.53;;;32.10;93.30;;;;;;4991264;28;20041;-64
2022/09/01 11:24:43;;;;;;;13.98;3.05;;;32.10;93.60;;;;;;4991528;28;20029;-63
2022/09/01 11:27:31;;;;;;;15.18;2.80;;;32.10;93.70;;;;;;4990439;28;20088;-61
2022/09/01 11:30:08;;;;;;;13.07;2.65;;;32.00;93.80;;;;;;4991028;28;20137;-63
2022/09/01 11:32:37;;;;;;;12.75;2.75;;;31.90;94.20;;;;;;4990243;28;20506;-64
2022/09/01 11:35:20;;;;;;;10.68;2.60;;;32.00;94.00;;;;;;4990023;28;20030;-63
2022/09/01 11:37:54;;;;;;;14.13;2.55;;;32.00;94.20;;;;;;5007651;28;20492;-63
2022/09/01 11:40:27;;;;;;;15.32;2.40;;;32.00;94.10;;;;;;4993925;28;20072;-64
2022/09/01 11:42:55;;;;;;;12.63;2.75;;;32.10;94.10;;;;;;4990685;28;20048;-63
2022/09/01 11:45:31;;;;;;;17.27;3.33;;;32.00;93.80;;;;;;4994210;28;20105;-63
2022/09/01 11:48:07;;;;;;;17.92;2.72;;;32.00;93.80;;;;;;4994587;28;20473;-65
2022/09/01 11:50:41;;;;;;;13.88;2.65;;;32.00;93.80;;;;;;4995633;28;20128;-63
2022/09/01 11:53:14;;;;;;;22.60;2.70;;;31.90;93.70;;;;;;5011673;28;20468;-64
2022/09/01 11:55:50;;;;;;;16.70;2.80;;;31.90;93.80;;;;;;4993561;28;20038;-64
2022/09/01 11:58:33;;;;;;;13.87;2.43;;;31.90;93.70;;;;;;4994368;28;20113;-64
2022/09/01 12:01:22;;;;;;;12.73;2.38;;;31.70;93.60;;;;;;4994575;28;20494;-65
2022/09/01 12:03:51;;;;;;;16.25;2.55;;;31.80;93.80;;;;;;4998371;28;20032;-63
2022/09/01 12:06:22;;;;;;;17.80;2.40;;;31.80;93.90;;;;;;4994153;28;20076;-64
2022/09/01 12:09:00;;;;;;;15.00;3.13;;;31.70;94.10;;;;;;4992265;28;20383;-64
2022/09/01 12:11:33;;;;;;;13.38;3.05;;;31.80;94.00;;;;;;5010210;28;20026;-63
2022/09/01 12:14:07;;;;;;;15.75;2.30;;;31.70;94.00;;;;;;5011504;28;20084;-63
2022/09/01 12:16:40;;;;;;;13.50;2.72;;;31.70;94.00;;;;;;4978229;28;20057;-64
2022/09/01 12:19:07;;;;;;;7.90;2.30;;;31.70;94.00;;;;;;5000922;28;20033;-64
2022/09/01 12:21:41;;;;;;;15.80;3.00;;;31.70;94.00;;;;;;5010606;28;20038;-63
2022/09/01 12:24:22;;;;;;;15.77;2.92;;;31.50;94.10;;;;;;4994362;28;20540;-63
2022/09/01 12:26:53;;;;;;;17.02;3.08;;;31.60;94.20;;;;;;4993617;28;20026;-63
2022/09/01 12:29:21;;;;;;;11.52;2.70;;;31.60;94.20;;;;;;4993736;28;20030;-63
2022/09/01 12:31:51;;;;;;;16.77;3.03;;;31.60;94.00;;;;;;4993881;28;20026;-64
2022/09/01 12:34:32;;;;;;;12.68;2.78;;;31.60;94.00;;;;;;4993241;28;20022;-62
2022/09/01 12:37:26;;;;;;;13.95;3.00;;;31.60;94.10;;;;;;4998266;28;20163;-64
2022/09/01 12:39:59;;;;;;;18.42;3.42;;;31.50;94.20;;;;;;5010416;28;20041;-63
2022/09/01 12:42:31;;;;;;;24.88;2.97;;;31.50;94.20;;;;;;4977238;28;20108;-63
2022/09/01 12:45:03;;;;;;;10.07;2.70;;;31.50;94.20;;;;;;4976967;28;20088;-63
2022/09/01 12:47:36;;;;;;;19.13;3.08;;;31.40;94.40;;;;;;5010934;28;20030;-63
2022/09/01 12:50:27;;;;;;;19.10;3.63;;;31.40;94.30;;;;;;4994245;28;20041;-63
2022/09/01 12:52:57;;;;;;;17.70;2.70;;;31.40;94.40;;;;;;4979981;28;20096;-62
2022/09/01 12:55:29;;;;;;;14.48;2.55;;;31.40;94.40;;;;;;5010179;28;20563;-62
2022/09/01 12:57:59;;;;;;;26.45;2.97;;;31.40;94.60;;;;;;4991844;28;20538;-63
2022/09/01 13:00:32;;;;;;;13.65;2.70;;;31.30;94.70;;;;;;4976052;28;20033;-63
2022/09/01 13:03:13;;;;;;;20.02;2.95;;;31.20;95.00;;;;;;4992922;28;20790;-64
2022/09/01 13:05:42;;;;;;;21.25;3.35;;;31.30;95.00;;;;;;4974867;28;20022;-66
2022/09/01 13:08:15;;;;;;;14.88;2.65;;;31.30;95.00;;;;;;5009455;28;20038;-64